createdAt,value
2022-11-25T00:00:32.990Z,21.67
2022-11-25T00:03:20.075Z,40.30
2022-11-25T00:06:11.936Z,71.50
2022-11-25T00:09:20.410Z,101.27
2022-11-25T00:12:07.468Z,53.73
2022-11-25T00:14:54.378Z,62.47
2022-11-25T00:17:41.553Z,76.60
2022-11-25T00:20:28.492Z,45.77
2022-11-25T00:23:15.476Z,21.93
2022-11-25T00:26:08.729Z,23.73
2022-11-25T00:28:57.578Z,7.87
2022-11-25T00:31:44.669Z,8.23
2022-11-25T00:34:31.685Z,32.53
2022-11-25T00:37:18.582Z,37.33
2022-11-25T00:40:06.227Z,75.73
2022-11-25T00:43:11.662Z,57.17
2022-11-25T00:45:58.649Z,73.03
2022-11-25T00:48:45.610Z,35.47
2022-11-25T00:51:32.576Z,62.13
2022-11-25T00:54:19.637Z,40.70
2022-11-25T00:57:06.621Z,30.83
2022-11-25T00:59:53.554Z,73.03
2022-11-25T01:02:40.511Z,76.67
2022-11-25T01:05:27.502Z,51.93
2022-11-25T01:08:14.421Z,24.70
2022-11-25T01:11:06.590Z,18.57
2022-11-25T01:14:00.815Z,15.83
2022-11-25T01:16:48.904Z,16.70
2022-11-25T01:19:39.991Z,18.67
2022-11-25T01:22:26.939Z,17.87
2022-11-25T01:25:13.914Z,32.10
2022-11-25T01:28:00.826Z,16.47
2022-11-25T01:30:47.738Z,11.87
2022-11-25T01:33:35.440Z,14.97
2022-11-25T01:36:22.615Z,17.63
2022-11-25T01:39:18.382Z,14.80
2022-11-25T01:42:05.357Z,12.23
2022-11-25T01:45:31.341Z,12.37
2022-11-25T01:48:28.846Z,14.00
2022-11-25T01:51:38.568Z,14.40
2022-11-25T01:54:30.753Z,15.60
2022-11-25T01:57:23.435Z,19.40
2022-11-25T02:00:11.373Z,14.97
2022-11-25T02:02:58.857Z,16.40
2022-11-25T02:05:59.778Z,13.23
2022-11-25T02:08:50.558Z,15.53
2022-11-25T02:11:41.727Z,16.33
2022-11-25T02:14:28.684Z,16.57
2022-11-25T02:17:15.629Z,19.67
2022-11-25T02:20:07.366Z,20.20
2022-11-25T02:23:12.522Z,18.20
2022-11-25T02:25:59.777Z,17.63
2022-11-25T02:28:47.239Z,18.67
2022-11-25T02:31:34.276Z,19.47
2022-11-25T02:34:21.346Z,18.67
2022-11-25T02:37:08.621Z,21.47
2022-11-25T02:39:55.815Z,24.50
2022-11-25T02:42:44.007Z,21.17
2022-11-25T02:45:44.700Z,20.00
2022-11-25T02:49:06.981Z,26.73
2022-11-25T02:51:44.392Z,16.50
2022-11-25T02:54:31.333Z,14.47
2022-11-25T02:57:18.245Z,18.27
2022-11-25T03:00:06.050Z,21.17
2022-11-25T03:02:54.577Z,17.80
2022-11-25T03:05:41.901Z,18.87
2022-11-25T03:08:29.057Z,14.90
2022-11-25T03:11:16.417Z,19.37
2022-11-25T03:14:03.393Z,16.27
2022-11-25T03:16:50.502Z,16.57
2022-11-25T03:19:37.642Z,24.73
2022-11-25T03:22:25.730Z,21.00
2022-11-25T03:25:13.885Z,20.90
2022-11-25T03:28:01.808Z,21.77
2022-11-25T03:30:48.759Z,18.47
2022-11-25T03:33:35.699Z,18.07
2022-11-25T03:36:22.623Z,19.07
2022-11-25T03:39:09.542Z,19.70
2022-11-25T03:41:56.446Z,21.07
2022-11-25T03:44:43.551Z,20.53
2022-11-25T03:47:30.951Z,17.30
2022-11-25T03:50:18.053Z,16.67
2022-11-25T03:53:05.025Z,15.27
2022-11-25T03:55:51.979Z,16.93
2022-11-25T03:58:39.010Z,17.60
2022-11-25T04:01:26.134Z,16.50
2022-11-25T04:04:13.313Z,15.57
2022-11-25T04:07:00.294Z,16.20
2022-11-25T04:09:47.250Z,14.97
2022-11-25T04:12:49.591Z,17.20
2022-11-25T04:15:36.787Z,21.27
2022-11-25T04:18:23.802Z,16.03
2022-11-25T04:21:10.745Z,16.70
2022-11-25T04:23:57.692Z,19.10
2022-11-25T04:26:44.769Z,20.33
2022-11-25T04:29:31.911Z,16.03
2022-11-25T04:32:19.158Z,19.07
2022-11-25T04:35:06.607Z,19.13
2022-11-25T04:37:53.741Z,19.63
2022-11-25T04:40:40.670Z,23.57
2022-11-25T04:43:27.648Z,24.13
2022-11-25T04:46:24.841Z,60.03
2022-11-25T04:49:12.069Z,27.20
2022-11-25T04:51:59.202Z,25.97
2022-11-25T04:54:46.299Z,42.07
2022-11-25T04:57:33.253Z,46.72
2022-11-25T05:00:20.800Z,75.50
2022-11-25T05:03:07.827Z,99.40
2022-11-25T05:05:54.884Z,58.23
2022-11-25T05:08:41.885Z,52.10
2022-11-25T05:11:28.845Z,104.30
2022-11-25T05:14:15.867Z,58.40
2022-11-25T05:17:04.396Z,68.27
2022-11-25T05:19:51.538Z,61.00
2022-11-25T05:22:38.513Z,84.63
2022-11-25T05:25:26.742Z,63.60
2022-11-25T05:28:13.734Z,58.10
2022-11-25T05:31:00.765Z,48.63
2022-11-25T05:33:47.817Z,71.03
2022-11-25T05:36:35.343Z,61.50
2022-11-25T05:39:22.311Z,95.27
2022-11-25T05:42:09.297Z,48.97
2022-11-25T05:44:56.215Z,46.70
2022-11-25T05:47:43.162Z,80.87
2022-11-25T05:50:30.120Z,33.87
2022-11-25T05:53:17.445Z,50.63
2022-11-25T05:56:06.511Z,38.37
2022-11-25T05:58:54.985Z,38.77
2022-11-25T06:01:41.974Z,44.73
2022-11-25T06:04:28.955Z,46.17
2022-11-25T06:07:15.997Z,45.73
2022-11-25T06:10:03.568Z,36.87
2022-11-25T06:12:50.708Z,65.57
2022-11-25T06:15:42.374Z,101.13
2022-11-25T06:18:29.433Z,121.17
2022-11-25T06:21:16.682Z,116.50
2022-11-25T06:24:03.785Z,77.70
2022-11-25T06:26:50.799Z,137.20
2022-11-25T06:29:37.717Z,90.63
2022-11-25T06:32:25.038Z,104.67
2022-11-25T06:35:12.000Z,48.53
2022-11-25T06:37:59.586Z,57.77
2022-11-25T06:40:46.509Z,77.30
2022-11-25T06:43:33.413Z,74.97
2022-11-25T06:46:24.912Z,39.07
2022-11-25T06:49:12.474Z,65.60
2022-11-25T06:51:59.493Z,74.57
2022-11-25T06:54:46.479Z,21.77
2022-11-25T06:57:33.470Z,28.07
2022-11-25T07:00:20.912Z,75.60
2022-11-25T07:03:07.881Z,31.87
2022-11-25T07:05:57.793Z,66.03
2022-11-25T07:08:45.549Z,129.27
2022-11-25T07:11:35.199Z,83.17
2022-11-25T07:14:22.215Z,217.07
2022-11-25T07:17:12.191Z,253.50
2022-11-25T07:19:59.400Z,78.60
2022-11-25T07:22:47.174Z,134.53
2022-11-25T07:25:34.138Z,155.90
2022-11-25T07:28:21.109Z,121.67
2022-11-25T07:31:32.448Z,91.83
2022-11-25T07:34:21.340Z,75.40
2022-11-25T07:37:08.338Z,39.60
2022-11-25T07:39:55.327Z,36.90
2022-11-25T07:42:42.236Z,65.20
2022-11-25T07:45:29.202Z,30.13
2022-11-25T07:48:16.155Z,30.13
2022-11-25T07:51:03.176Z,19.67
2022-11-25T07:53:50.976Z,19.33
2022-11-25T07:56:39.925Z,20.73
2022-11-25T07:59:26.978Z,27.40
2022-11-25T08:02:14.010Z,19.23
2022-11-25T08:05:01.010Z,22.70
2022-11-25T08:07:48.088Z,17.53
2022-11-25T08:10:35.175Z,18.07
2022-11-25T08:13:22.240Z,19.87
2022-11-25T08:16:12.811Z,18.70
2022-11-25T08:19:02.595Z,21.70
2022-11-25T08:21:49.513Z,22.07
2022-11-25T08:24:36.547Z,20.97
2022-11-25T08:27:23.540Z,23.47
2022-11-25T08:30:10.871Z,24.07
2022-11-25T08:32:58.821Z,21.60
2022-11-25T08:35:54.261Z,19.67
2022-11-25T08:38:42.295Z,26.30
2022-11-25T08:41:34.263Z,24.33
2022-11-25T08:44:21.208Z,16.47
2022-11-25T08:47:09.782Z,28.97
2022-11-25T08:49:57.331Z,20.30
2022-11-25T08:52:44.502Z,19.67
2022-11-25T08:55:32.648Z,23.97
2022-11-25T08:58:19.875Z,25.57
2022-11-25T09:01:07.719Z,19.77
2022-11-25T09:03:56.185Z,21.50
2022-11-25T09:06:43.571Z,24.70
2022-11-25T09:09:31.294Z,18.93
2022-11-25T09:12:18.708Z,21.07
2022-11-25T09:15:06.352Z,19.20
2022-11-25T09:18:04.412Z,21.23
2022-11-25T09:20:51.751Z,18.77
2022-11-25T09:23:39.752Z,19.30
2022-11-25T09:26:28.688Z,19.87
2022-11-25T09:29:16.080Z,16.87
2022-11-25T09:32:03.490Z,19.00
2022-11-25T09:34:50.859Z,21.80
2022-11-25T09:37:38.262Z,17.57
2022-11-25T09:40:45.980Z,15.63
2022-11-25T09:43:52.026Z,15.83
2022-11-25T09:46:52.888Z,18.43
2022-11-25T09:49:40.260Z,20.37
2022-11-25T09:52:41.464Z,18.80
2022-11-25T09:55:31.413Z,18.30
2022-11-25T09:58:30.888Z,21.63
2022-11-25T10:01:20.025Z,16.13
2022-11-25T10:04:12.502Z,19.37
2022-11-25T10:07:02.140Z,16.63
2022-11-25T10:09:49.608Z,15.20
2022-11-25T10:12:39.911Z,18.30
2022-11-25T10:15:30.097Z,16.77
2022-11-25T10:18:21.365Z,16.53
2022-11-25T10:21:10.352Z,17.93
2022-11-25T10:23:57.772Z,17.17
2022-11-25T10:26:58.751Z,16.37
2022-11-25T10:29:48.103Z,22.93
2022-11-25T10:32:41.077Z,21.97
2022-11-25T10:35:32.160Z,16.43
2022-11-25T10:38:22.943Z,17.80
2022-11-25T10:41:18.393Z,18.97
2022-11-25T10:44:10.696Z,17.93
2022-11-25T10:47:14.628Z,16.37
2022-11-25T10:50:14.477Z,15.53
2022-11-25T10:53:22.074Z,15.63
2022-11-25T10:56:17.886Z,18.90
2022-11-25T10:59:13.531Z,13.83
2022-11-25T11:02:19.749Z,16.27
2022-11-25T11:05:10.253Z,14.83
2022-11-25T11:08:30.140Z,18.27
2022-11-25T11:11:24.486Z,18.57
2022-11-25T11:14:13.670Z,15.77
2022-11-25T11:17:01.050Z,17.67
2022-11-25T11:20:02.045Z,18.30
2022-11-25T11:22:56.076Z,17.27
2022-11-25T11:25:44.948Z,16.23
2022-11-25T11:28:39.273Z,19.40
2022-11-25T11:31:35.287Z,17.67
2022-11-25T11:34:22.658Z,17.93
2022-11-25T11:37:29.646Z,19.23
2022-11-25T11:40:35.726Z,16.60
2022-11-25T11:43:36.290Z,18.37
2022-11-25T11:46:31.131Z,15.33
2022-11-25T11:49:30.764Z,18.20
2022-11-25T11:52:38.599Z,17.40
2022-11-25T11:56:00.292Z,18.33
2022-11-25T11:58:55.122Z,13.93
2022-11-25T12:01:42.495Z,21.40
2022-11-25T12:04:40.444Z,18.33
2022-11-25T12:07:33.649Z,18.47
2022-11-25T12:10:39.192Z,18.30
2022-11-25T12:13:33.499Z,17.53
2022-11-25T12:16:36.327Z,15.63
2022-11-25T12:19:23.708Z,19.67
2022-11-25T12:22:19.592Z,20.60
2022-11-25T12:25:07.010Z,19.57
2022-11-25T12:27:59.755Z,19.43
2022-11-25T12:31:03.453Z,20.33
2022-11-25T12:34:00.390Z,25.60
2022-11-25T12:36:48.052Z,30.50
2022-11-25T12:39:40.616Z,26.47
2022-11-25T12:42:31.199Z,18.77
2022-11-25T12:45:23.436Z,18.37
2022-11-25T12:48:12.123Z,17.47
2022-11-25T12:51:12.095Z,15.60
2022-11-25T12:54:05.589Z,14.23
2022-11-25T12:57:08.245Z,16.27
2022-11-25T13:00:44.749Z,16.10
2022-11-25T13:03:32.314Z,22.33
2022-11-25T13:06:38.516Z,18.13
2022-11-25T13:09:34.775Z,17.13
2022-11-25T13:12:22.318Z,16.97
2022-11-25T13:15:13.156Z,15.77
2022-11-25T13:18:02.908Z,12.33
2022-11-25T13:20:51.971Z,16.67
2022-11-25T13:23:49.012Z,17.70
2022-11-25T13:26:46.137Z,19.07
2022-11-25T13:29:36.535Z,16.17
2022-11-25T13:32:30.094Z,15.17
2022-11-25T13:35:26.167Z,15.23
2022-11-25T13:38:32.626Z,15.13
2022-11-25T13:41:37.664Z,15.33
2022-11-25T13:44:48.185Z,16.67
2022-11-25T13:47:35.536Z,13.80
2022-11-25T13:50:28.984Z,15.73
2022-11-25T13:53:35.641Z,20.10
2022-11-25T13:56:27.141Z,22.33
2022-11-25T13:59:14.600Z,14.47
2022-11-25T14:02:20.895Z,18.93
2022-11-25T14:05:08.331Z,20.33
2022-11-25T14:08:07.738Z,15.87
2022-11-25T14:11:10.642Z,19.03
2022-11-25T14:14:17.123Z,16.37
2022-11-25T14:17:27.557Z,17.70
2022-11-25T14:20:39.151Z,18.77
2022-11-25T14:23:36.953Z,14.23
2022-11-25T14:26:48.779Z,18.13
2022-11-25T14:29:39.545Z,13.87
2022-11-25T14:32:27.092Z,17.00
2022-11-25T14:35:14.430Z,18.90
2022-11-25T14:38:11.249Z,19.83
2022-11-25T14:41:06.200Z,17.43
2022-11-25T14:43:56.509Z,17.20
2022-11-25T14:46:57.798Z,14.73
2022-11-25T14:49:59.713Z,18.27
2022-11-25T14:52:53.049Z,15.40
2022-11-25T14:55:40.474Z,17.07
2022-11-25T14:58:29.180Z,16.43
2022-11-25T15:01:21.246Z,24.03
2022-11-25T15:04:18.358Z,18.67
2022-11-25T15:07:18.073Z,24.33
2022-11-25T15:10:05.781Z,22.17
2022-11-25T15:12:53.872Z,17.00
2022-11-25T15:15:44.702Z,14.47
2022-11-25T15:18:34.922Z,17.77
2022-11-25T15:21:23.744Z,17.03
2022-11-25T15:24:23.317Z,13.10
2022-11-25T15:27:18.503Z,20.60
2022-11-25T15:30:20.127Z,17.87
2022-11-25T15:33:10.191Z,20.73
2022-11-25T15:35:57.615Z,16.73
2022-11-25T15:38:46.808Z,21.17
2022-11-25T15:41:35.217Z,21.07
2022-11-25T15:44:25.586Z,19.77
2022-11-25T15:47:20.402Z,22.70
2022-11-25T15:50:19.051Z,20.27
2022-11-25T15:53:07.391Z,25.58
2022-11-25T15:55:59.738Z,22.10
2022-11-25T15:58:47.122Z,17.80
2022-11-25T16:01:39.357Z,22.87
2022-11-25T16:04:26.842Z,20.07
2022-11-25T16:07:24.321Z,21.80
2022-11-25T16:10:26.102Z,22.97
2022-11-25T16:13:23.159Z,19.67
2022-11-25T16:16:10.725Z,19.47
2022-11-25T16:19:10.090Z,24.03
2022-11-25T16:22:00.220Z,21.63
2022-11-25T16:24:50.561Z,26.90
2022-11-25T16:27:38.663Z,20.47
2022-11-25T16:30:26.150Z,16.40
2022-11-25T16:33:13.479Z,22.73
2022-11-25T16:36:04.150Z,20.47
2022-11-25T16:38:56.881Z,27.83
2022-11-25T16:41:46.281Z,21.77
2022-11-25T16:44:34.672Z,19.77
2022-11-25T16:47:23.059Z,26.43
2022-11-25T16:50:14.437Z,19.80
2022-11-25T16:53:01.884Z,17.20
2022-11-25T16:55:49.520Z,19.20
2022-11-25T16:58:36.920Z,24.97
2022-11-25T17:01:26.380Z,24.77
2022-11-25T17:04:14.342Z,20.37
2022-11-25T17:07:30.963Z,21.03
2022-11-25T17:10:10.166Z,24.13
2022-11-25T17:12:57.691Z,21.13
2022-11-25T17:15:46.236Z,17.53
2022-11-25T17:18:33.733Z,20.00
2022-11-25T17:21:26.673Z,22.77
2022-11-25T17:24:20.278Z,25.70
2022-11-25T17:27:07.245Z,21.80
2022-11-25T17:29:55.977Z,24.77
2022-11-25T17:32:43.015Z,22.70
2022-11-25T17:35:30.264Z,25.77
2022-11-25T17:38:20.281Z,21.10
2022-11-25T17:41:15.475Z,22.13
2022-11-25T17:44:02.568Z,26.03
2022-11-25T17:46:50.873Z,25.20
2022-11-25T17:49:37.834Z,25.37
2022-11-25T17:52:24.906Z,23.47
2022-11-25T17:55:12.838Z,21.63
2022-11-25T17:58:00.919Z,27.47
2022-11-25T18:00:48.843Z,25.83
2022-11-25T18:03:35.976Z,29.23
2022-11-25T18:06:23.266Z,29.37
2022-11-25T18:09:10.319Z,24.20
2022-11-25T18:11:59.863Z,23.20
2022-11-25T18:14:47.034Z,25.27
2022-11-25T18:17:37.923Z,23.50
2022-11-25T18:20:25.724Z,23.57
2022-11-25T18:23:12.788Z,29.13
2022-11-25T18:26:01.929Z,27.00
2022-11-25T18:28:48.987Z,24.20
2022-11-25T18:31:35.954Z,28.53
2022-11-25T18:34:24.084Z,26.37
2022-11-25T18:37:14.092Z,28.03
2022-11-25T18:40:01.105Z,29.10
2022-11-25T18:42:50.347Z,73.17
2022-11-25T18:45:38.760Z,118.83
2022-11-25T18:48:26.766Z,36.63
2022-11-25T18:51:15.066Z,30.20
2022-11-25T18:54:02.096Z,33.22
2022-11-25T18:56:52.125Z,29.90
2022-11-25T18:59:39.179Z,35.23
2022-11-25T19:02:26.207Z,27.00
2022-11-25T19:05:21.456Z,31.27
2022-11-25T19:08:08.404Z,25.60
2022-11-25T19:10:55.801Z,27.07
2022-11-25T19:13:48.435Z,26.47
2022-11-25T19:16:35.696Z,27.53
2022-11-25T19:19:22.776Z,27.23
2022-11-25T19:22:15.197Z,34.17
2022-11-25T19:25:02.159Z,24.33
2022-11-25T19:27:53.229Z,21.03
2022-11-25T19:30:40.529Z,27.17
2022-11-25T19:33:32.697Z,26.27
2022-11-25T19:36:25.169Z,25.40
2022-11-25T19:39:17.752Z,30.00
2022-11-25T19:42:04.713Z,31.40
2022-11-25T19:44:52.783Z,26.63
2022-11-25T19:47:40.158Z,31.37
2022-11-25T19:50:28.955Z,28.33
2022-11-25T19:53:19.051Z,31.83
2022-11-25T19:56:10.872Z,29.63
2022-11-25T19:58:57.768Z,27.10
2022-11-25T20:01:46.153Z,30.27
2022-11-25T20:04:33.168Z,28.77
2022-11-25T20:07:21.097Z,36.43
2022-11-25T20:10:14.408Z,26.63
2022-11-25T20:13:01.777Z,26.27
2022-11-25T20:15:49.252Z,31.93
2022-11-25T20:18:37.269Z,30.27
2022-11-25T20:21:33.534Z,35.27
2022-11-25T20:24:20.822Z,26.77
2022-11-25T20:27:11.435Z,25.30
2022-11-25T20:29:58.343Z,24.47
2022-11-25T20:32:45.566Z,23.17
2022-11-25T20:35:32.578Z,28.70
2022-11-25T20:38:25.318Z,31.37
2022-11-25T20:41:13.034Z,27.90
2022-11-25T20:44:00.471Z,34.37
2022-11-25T20:46:48.052Z,29.10
2022-11-25T20:49:35.122Z,36.20
2022-11-25T20:52:29.780Z,31.23
2022-11-25T20:55:23.683Z,32.87
2022-11-25T20:58:25.898Z,29.50
2022-11-25T21:01:18.818Z,41.37
2022-11-25T21:04:06.318Z,30.17
2022-11-25T21:06:53.266Z,37.87
2022-11-25T21:09:40.666Z,37.70
2022-11-25T21:12:28.757Z,32.63
2022-11-25T21:15:21.347Z,33.53
2022-11-25T21:18:08.715Z,33.07
2022-11-25T21:20:57.624Z,35.53
2022-11-25T21:23:46.410Z,40.70
2022-11-25T21:26:34.048Z,34.20
2022-11-25T21:29:21.516Z,31.50
2022-11-25T21:32:19.480Z,36.73
2022-11-25T21:35:08.718Z,38.80
2022-11-25T21:37:56.058Z,42.53
2022-11-25T21:40:45.691Z,37.53
2022-11-25T21:43:34.394Z,36.00
2022-11-25T21:46:25.361Z,38.03
2022-11-25T21:49:12.763Z,38.13
2022-11-25T21:52:00.363Z,35.80
2022-11-25T21:54:48.114Z,30.90
2022-11-25T21:57:35.492Z,45.13
2022-11-25T22:00:26.506Z,34.77
2022-11-25T22:03:17.983Z,30.57
2022-11-25T22:06:06.715Z,34.97
2022-11-25T22:08:54.472Z,35.73
2022-11-25T22:11:42.800Z,31.50
2022-11-25T22:14:34.558Z,31.23
2022-11-25T22:17:22.252Z,34.73
2022-11-25T22:20:21.919Z,32.27
2022-11-25T22:23:14.705Z,32.33
2022-11-25T22:26:04.297Z,36.53
2022-11-25T22:28:52.699Z,35.90
2022-11-25T22:31:39.960Z,31.17
2022-11-25T22:34:27.023Z,36.07
2022-11-25T22:37:19.394Z,38.30
2022-11-25T22:40:08.253Z,36.53
2022-11-25T22:42:56.285Z,31.90
2022-11-25T22:45:44.202Z,40.90
2022-11-25T22:48:34.920Z,38.80
2022-11-25T22:51:29.971Z,44.80
2022-11-25T22:54:17.699Z,36.07
2022-11-25T22:57:04.621Z,28.40
2022-11-25T22:59:51.567Z,35.73
2022-11-25T23:02:38.607Z,33.60
2022-11-25T23:05:33.545Z,36.70
2022-11-25T23:08:23.605Z,34.60
2022-11-25T23:11:21.433Z,34.57
2022-11-25T23:14:08.430Z,31.43
2022-11-25T23:16:55.551Z,30.10
2022-11-25T23:19:42.688Z,30.13
2022-11-25T23:22:29.627Z,28.87
2022-11-25T23:25:19.463Z,27.93
2022-11-25T23:28:06.399Z,25.73
2022-11-25T23:30:58.755Z,26.60
2022-11-25T23:33:49.009Z,30.87
2022-11-25T23:36:41.564Z,28.37
2022-11-25T23:39:28.548Z,30.47
2022-11-25T23:42:17.917Z,23.27
2022-11-25T23:45:07.169Z,26.43
2022-11-25T23:47:55.826Z,32.30
2022-11-25T23:50:43.194Z,35.43
2022-11-25T23:53:36.895Z,27.27
2022-11-25T23:56:26.306Z,24.17
2022-11-25T23:59:15.216Z,25.47
